createdAt,value
2017-07-11T00:00:49.003Z,63.0
2017-07-11T00:01:50.426Z,63.0
2017-07-11T00:02:51.748Z,62.1
2017-07-11T00:03:53.121Z,63.0
2017-07-11T00:04:54.490Z,63.2
2017-07-11T00:05:55.860Z,62.7
2017-07-11T00:06:57.285Z,62.8
2017-07-11T00:07:58.608Z,62.3
2017-07-11T00:08:59.980Z,63.0
2017-07-11T00:10:01.351Z,63.2
2017-07-11T00:11:02.720Z,62.9
2017-07-11T00:12:04.095Z,62.9
2017-07-11T00:13:05.469Z,62.9
2017-07-11T00:14:06.838Z,62.8
2017-07-11T00:15:08.217Z,62.9
2017-07-11T00:16:09.587Z,63.0
2017-07-11T00:17:10.958Z,63.6
2017-07-11T00:18:12.326Z,63.5
2017-07-11T00:19:13.696Z,63.4
2017-07-11T00:20:15.068Z,63.3
2017-07-11T00:21:16.442Z,62.7
2017-07-11T00:22:17.811Z,62.9
2017-07-11T00:23:19.182Z,62.8
2017-07-11T00:24:20.557Z,62.8
2017-07-11T00:25:21.925Z,62.9
2017-07-11T00:26:23.297Z,64.1
2017-07-11T00:27:24.704Z,64.1
2017-07-11T00:28:26.046Z,62.6
2017-07-11T00:29:27.419Z,63.2
2017-07-11T00:30:28.794Z,62.9
2017-07-11T00:31:30.161Z,63.1
2017-07-11T00:32:31.531Z,62.9
2017-07-11T00:33:32.904Z,62.9
2017-07-11T00:34:34.274Z,63.4
2017-07-11T00:35:35.644Z,63.5
2017-07-11T00:36:37.018Z,62.9
2017-07-11T00:37:38.393Z,62.8
2017-07-11T00:38:39.760Z,63.8
2017-07-11T00:39:41.194Z,63.6
2017-07-11T00:40:42.567Z,63.4
2017-07-11T00:41:43.939Z,63.6
2017-07-11T00:42:45.307Z,62.9
2017-07-11T00:43:46.681Z,63.6
2017-07-11T00:44:48.053Z,63.7
2017-07-11T00:45:49.425Z,63.1
2017-07-11T00:46:50.794Z,62.9
2017-07-11T00:47:52.165Z,62.9
2017-07-11T00:48:53.542Z,63.8
2017-07-11T00:49:54.912Z,63.5
2017-07-11T00:50:56.286Z,63.5
2017-07-11T00:51:57.660Z,63.5
2017-07-11T00:52:59.031Z,63.9
2017-07-11T00:54:00.397Z,63.5
2017-07-11T00:55:01.774Z,62.8
2017-07-11T00:56:03.150Z,63.5
2017-07-11T00:57:04.523Z,63.5
2017-07-11T00:58:05.896Z,63.9
2017-07-11T00:59:07.264Z,63.7
2017-07-11T01:00:08.637Z,63.5
2017-07-11T01:01:10.011Z,63.1
2017-07-11T01:02:11.380Z,62.8
2017-07-11T01:03:12.753Z,63.0
2017-07-11T01:04:14.125Z,63.1
2017-07-11T01:05:15.497Z,63.3
2017-07-11T01:06:16.871Z,63.5
2017-07-11T01:07:18.237Z,63.4
2017-07-11T01:08:19.608Z,63.5
2017-07-11T01:09:20.982Z,63.3
2017-07-11T01:10:22.349Z,63.6
2017-07-11T01:11:23.720Z,63.6
2017-07-11T01:12:25.090Z,63.6
2017-07-11T01:13:26.463Z,63.7
2017-07-11T01:14:27.836Z,64.2
2017-07-11T01:15:29.206Z,63.8
2017-07-11T01:16:30.578Z,63.4
2017-07-11T01:17:31.951Z,63.8
2017-07-11T01:18:33.323Z,63.8
2017-07-11T01:19:34.696Z,63.6
2017-07-11T01:20:36.066Z,62.9
2017-07-11T01:21:37.435Z,63.6
2017-07-11T01:22:38.809Z,63.3
2017-07-11T01:23:40.180Z,63.4
2017-07-11T01:24:41.551Z,63.5
2017-07-11T01:25:42.926Z,63.3
2017-07-11T01:26:44.301Z,63.6
2017-07-11T01:27:45.667Z,63.5
2017-07-11T01:28:47.039Z,62.7
2017-07-11T01:29:48.409Z,63.4
2017-07-11T01:30:49.784Z,62.5
2017-07-11T01:31:51.156Z,62.5
2017-07-11T01:32:52.523Z,63.4
2017-07-11T01:33:53.899Z,63.6
2017-07-11T01:34:55.273Z,63.3
2017-07-11T01:35:56.646Z,63.5
2017-07-11T01:36:58.023Z,63.8
2017-07-11T01:37:59.395Z,63.8
2017-07-11T01:39:00.767Z,63.5
2017-07-11T01:40:02.139Z,63.0
2017-07-11T01:41:03.512Z,63.6
2017-07-11T01:42:04.889Z,63.7
2017-07-11T01:43:06.256Z,63.6
2017-07-11T01:44:07.650Z,63.1
2017-07-11T01:45:09.027Z,63.4
2017-07-11T01:46:10.396Z,63.8
2017-07-11T01:47:11.771Z,63.4
2017-07-11T01:48:13.142Z,64.0
2017-07-11T01:49:14.515Z,63.6
2017-07-11T01:50:15.888Z,63.5
2017-07-11T01:51:17.260Z,63.5
2017-07-11T01:52:18.628Z,63.0
2017-07-11T01:53:20.001Z,63.1
2017-07-11T01:54:21.373Z,63.6
2017-07-11T01:55:22.747Z,63.6
2017-07-11T01:56:24.119Z,63.3
2017-07-11T01:57:25.488Z,63.8
2017-07-11T01:58:26.863Z,63.7
2017-07-11T01:59:28.230Z,63.5
2017-07-11T02:00:29.603Z,63.8
2017-07-11T02:01:30.975Z,63.6
2017-07-11T02:02:32.346Z,64.0
2017-07-11T02:03:33.718Z,63.7
2017-07-11T02:04:35.098Z,64.5
2017-07-11T02:05:36.464Z,64.4
2017-07-11T02:06:37.836Z,63.6
2017-07-11T02:07:39.208Z,63.9
2017-07-11T02:08:40.581Z,64.0
2017-07-11T02:09:41.953Z,64.1
2017-07-11T02:10:43.326Z,63.5
2017-07-11T02:11:44.695Z,63.8
2017-07-11T02:12:46.065Z,63.3
2017-07-11T02:13:47.440Z,63.0
2017-07-11T02:14:48.809Z,63.5
2017-07-11T02:15:50.181Z,63.7
2017-07-11T02:16:51.560Z,63.6
2017-07-11T02:17:52.929Z,62.6
2017-07-11T02:18:54.298Z,63.4
2017-07-11T02:19:55.670Z,63.6
2017-07-11T02:20:57.039Z,63.0
2017-07-11T02:21:58.412Z,62.4
2017-07-11T02:22:59.785Z,63.1
2017-07-11T02:24:01.156Z,63.0
2017-07-11T02:25:02.534Z,62.8
2017-07-11T02:26:03.904Z,62.6
2017-07-11T02:27:05.274Z,62.7
2017-07-11T02:28:06.645Z,63.5
2017-07-11T02:29:08.017Z,62.8
2017-07-11T02:30:09.391Z,63.3
2017-07-11T02:31:10.764Z,63.7
2017-07-11T02:32:12.133Z,62.5
2017-07-11T02:33:13.504Z,63.3
2017-07-11T02:34:14.874Z,62.6
2017-07-11T02:35:16.249Z,62.8
2017-07-11T02:36:17.621Z,62.7
2017-07-11T02:37:18.989Z,63.7
2017-07-11T02:38:20.364Z,63.8
2017-07-11T02:39:21.738Z,63.7
2017-07-11T02:40:23.110Z,63.7
2017-07-11T02:41:24.482Z,63.1
2017-07-11T02:42:25.853Z,63.6
2017-07-11T02:43:27.223Z,63.1
2017-07-11T02:44:28.594Z,63.6
2017-07-11T02:45:29.965Z,63.3
2017-07-11T02:46:31.338Z,63.9
2017-07-11T02:47:32.710Z,63.8
2017-07-11T02:48:34.082Z,63.3
2017-07-11T02:49:35.454Z,63.3
2017-07-11T02:50:36.829Z,63.7
2017-07-11T02:51:38.267Z,63.7
2017-07-11T02:52:39.641Z,64.1
2017-07-11T02:53:41.014Z,63.3
2017-07-11T02:54:42.386Z,63.6
2017-07-11T02:55:43.754Z,63.8
2017-07-11T02:56:45.124Z,62.5
2017-07-11T02:57:46.499Z,62.5
2017-07-11T02:58:47.879Z,63.1
2017-07-11T02:59:49.242Z,63.8
2017-07-11T03:00:50.615Z,63.3
2017-07-11T03:01:51.988Z,63.9
2017-07-11T03:02:53.357Z,63.4
2017-07-11T03:03:54.729Z,63.7
2017-07-11T03:04:56.100Z,63.6
2017-07-11T03:05:57.471Z,63.7
2017-07-11T03:06:58.846Z,63.7
2017-07-11T03:08:00.207Z,63.3
2017-07-11T03:09:01.587Z,64.8
2017-07-11T03:10:02.964Z,63.8
2017-07-11T03:11:04.336Z,63.4
2017-07-11T03:12:05.704Z,64.0
2017-07-11T03:13:07.078Z,63.8
2017-07-11T03:14:08.452Z,63.5
2017-07-11T03:15:09.833Z,63.7
2017-07-11T03:16:11.202Z,63.7
2017-07-11T03:17:12.574Z,63.3
2017-07-11T03:18:13.945Z,63.4
2017-07-11T03:19:15.313Z,63.7
2017-07-11T03:20:16.690Z,63.7
2017-07-11T03:21:18.061Z,63.4
2017-07-11T03:22:19.433Z,63.5
2017-07-11T03:23:20.804Z,63.4
2017-07-11T03:24:22.192Z,63.5
2017-07-11T03:25:23.565Z,63.6
2017-07-11T03:26:24.938Z,63.5
2017-07-11T03:27:26.310Z,63.6
2017-07-11T03:28:27.681Z,63.7
2017-07-11T03:29:29.053Z,63.5
2017-07-11T03:30:30.425Z,63.5
2017-07-11T03:31:31.797Z,63.5
2017-07-11T03:32:33.172Z,63.7
2017-07-11T03:33:34.547Z,63.6
2017-07-11T03:34:35.919Z,63.6
2017-07-11T03:35:37.292Z,63.9
2017-07-11T03:36:38.666Z,63.9
2017-07-11T03:37:40.037Z,63.4
2017-07-11T03:38:41.407Z,63.4
2017-07-11T03:39:42.783Z,63.7
2017-07-11T03:40:44.155Z,64.5
2017-07-11T03:41:45.523Z,63.8
2017-07-11T03:42:46.899Z,64.0
2017-07-11T03:43:48.272Z,64.5
2017-07-11T03:44:49.642Z,63.8
2017-07-11T03:45:51.015Z,63.9
2017-07-11T03:46:52.385Z,63.4
2017-07-11T03:47:53.755Z,64.1
2017-07-11T03:48:55.134Z,63.4
2017-07-11T03:49:56.503Z,63.5
2017-07-11T03:50:57.879Z,63.4
2017-07-11T03:51:59.250Z,64.1
2017-07-11T03:53:00.620Z,63.9
2017-07-11T03:54:01.996Z,64.2
2017-07-11T03:55:03.372Z,64.4
2017-07-11T03:56:04.748Z,64.0
2017-07-11T03:57:06.124Z,64.6
2017-07-11T03:58:07.498Z,63.9
2017-07-11T03:59:08.871Z,63.6
2017-07-11T04:00:10.240Z,63.7
2017-07-11T04:01:11.617Z,63.4
2017-07-11T04:02:12.992Z,63.0
2017-07-11T04:03:14.368Z,63.1
2017-07-11T04:04:15.743Z,64.0
2017-07-11T04:05:17.121Z,64.1
2017-07-11T04:06:18.491Z,64.2
2017-07-11T04:07:19.865Z,63.8
2017-07-11T04:08:21.242Z,63.5
2017-07-11T04:09:22.616Z,63.7
2017-07-11T04:10:23.989Z,62.9
2017-07-11T04:11:25.365Z,63.7
2017-07-11T04:12:26.740Z,63.1
2017-07-11T04:13:28.113Z,62.4
2017-07-11T04:14:29.494Z,63.0
2017-07-11T04:15:30.862Z,62.9
2017-07-11T04:16:32.233Z,62.9
2017-07-11T04:17:33.607Z,62.6
2017-07-11T04:18:34.990Z,62.7
2017-07-11T04:19:36.358Z,61.9
2017-07-11T04:20:37.732Z,61.2
2017-07-11T04:21:39.106Z,60.9
2017-07-11T04:22:40.477Z,60.4
2017-07-11T04:23:41.853Z,60.2
2017-07-11T04:24:43.228Z,59.9
2017-07-11T04:25:44.619Z,59.9
2017-07-11T04:26:45.987Z,59.3
2017-07-11T04:27:47.364Z,59.3
2017-07-11T04:28:48.746Z,58.3
2017-07-11T04:29:50.136Z,58.5
2017-07-11T04:30:51.504Z,58.5
2017-07-11T04:31:52.878Z,57.6
2017-07-11T04:32:54.258Z,57.6
2017-07-11T04:33:55.638Z,57.5
2017-07-11T04:34:57.014Z,57.3
2017-07-11T04:35:58.386Z,57.6
2017-07-11T04:36:59.760Z,57.0
2017-07-11T04:38:01.134Z,58.0
2017-07-11T04:39:02.508Z,57.4
2017-07-11T04:40:03.881Z,57.0
2017-07-11T04:41:05.255Z,56.4
2017-07-11T04:42:06.629Z,56.1
2017-07-11T04:43:08.014Z,56.0
2017-07-11T04:44:09.396Z,56.2
2017-07-11T04:45:10.770Z,56.0
2017-07-11T04:46:12.144Z,55.1
2017-07-11T04:47:13.520Z,55.4
2017-07-11T04:48:14.896Z,55.2
2017-07-11T04:49:16.268Z,54.8
2017-07-11T04:50:17.642Z,55.5
2017-07-11T04:51:19.017Z,54.9
2017-07-11T04:52:20.389Z,55.9
2017-07-11T04:53:21.765Z,54.5
2017-07-11T04:54:23.143Z,53.8
2017-07-11T04:55:24.517Z,54.5
2017-07-11T04:56:25.889Z,54.9
2017-07-11T04:57:27.263Z,53.2
2017-07-11T04:58:28.672Z,54.3
2017-07-11T04:59:30.047Z,53.9
2017-07-11T05:00:31.425Z,53.3
2017-07-11T05:01:32.808Z,54.1
2017-07-11T05:02:34.183Z,53.2
2017-07-11T05:03:35.557Z,53.7
2017-07-11T05:04:36.935Z,54.0
2017-07-11T05:05:38.307Z,56.2
2017-07-11T05:06:39.681Z,55.5
2017-07-11T05:07:41.066Z,54.7
2017-07-11T05:08:42.441Z,56.3
2017-07-11T05:09:43.817Z,55.8
2017-07-11T05:10:45.192Z,54.5
2017-07-11T05:11:46.567Z,54.8
2017-07-11T05:12:48.684Z,54.4
2017-07-11T05:13:50.054Z,54.6
2017-07-11T05:14:51.429Z,54.8
2017-07-11T05:15:52.930Z,54.0
2017-07-11T05:16:54.350Z,54.4
2017-07-11T05:17:55.724Z,52.9
2017-07-11T05:18:58.767Z,52.6
2017-07-11T05:20:00.202Z,53.6
2017-07-11T05:21:01.555Z,52.3
2017-07-11T05:22:03.063Z,52.1
2017-07-11T05:23:04.441Z,52.3
2017-07-11T05:24:05.814Z,52.4
2017-07-11T05:25:07.187Z,52.4
2017-07-11T05:26:08.579Z,51.5
2017-07-11T05:27:09.952Z,52.0
2017-07-11T05:28:11.327Z,51.4
2017-07-11T05:29:12.920Z,51.3
2017-07-11T05:30:14.294Z,52.1
2017-07-11T05:31:15.669Z,52.0
2017-07-11T05:32:17.051Z,51.8
2017-07-11T05:33:18.425Z,51.3
2017-07-11T05:34:19.801Z,51.1
2017-07-11T05:35:21.175Z,52.3
2017-07-11T05:36:22.546Z,52.7
2017-07-11T05:37:23.924Z,52.3
2017-07-11T05:38:25.301Z,52.9
2017-07-11T05:39:26.680Z,53.1
2017-07-11T05:40:28.118Z,52.1
2017-07-11T05:41:29.476Z,52.9
2017-07-11T05:42:30.848Z,53.0
2017-07-11T05:43:32.223Z,52.3
2017-07-11T05:44:33.601Z,52.7
2017-07-11T05:45:34.976Z,51.7
2017-07-11T05:46:36.353Z,53.0
2017-07-11T05:47:37.727Z,52.6
2017-07-11T05:48:39.106Z,52.5
2017-07-11T05:49:40.479Z,52.1
2017-07-11T05:50:41.856Z,52.6
2017-07-11T05:51:43.227Z,51.8
2017-07-11T05:52:44.605Z,51.6
2017-07-11T05:53:45.975Z,51.0
2017-07-11T05:54:47.353Z,51.1
2017-07-11T05:55:48.727Z,51.8
2017-07-11T05:56:50.101Z,51.3
2017-07-11T05:57:51.477Z,51.1
2017-07-11T05:58:52.853Z,52.2
2017-07-11T05:59:54.228Z,51.7
2017-07-11T06:00:55.604Z,51.1
2017-07-11T06:01:56.985Z,50.8
2017-07-11T06:02:58.359Z,51.4
2017-07-11T06:03:59.734Z,50.6
2017-07-11T06:05:01.114Z,51.1
2017-07-11T06:06:02.488Z,51.1
2017-07-11T06:07:03.861Z,51.0
2017-07-11T06:08:05.234Z,50.5
2017-07-11T06:09:06.607Z,50.1
2017-07-11T06:10:07.981Z,50.1
2017-07-11T06:11:09.357Z,49.7
2017-07-11T06:12:10.732Z,50.0
2017-07-11T06:13:12.106Z,50.1
2017-07-11T06:14:13.491Z,49.5
2017-07-11T06:15:14.863Z,50.0
2017-07-11T06:16:16.240Z,50.5
2017-07-11T06:17:17.619Z,49.2
2017-07-11T06:18:18.991Z,49.5
2017-07-11T06:19:20.369Z,49.5
2017-07-11T06:20:21.757Z,50.0
2017-07-11T06:21:23.117Z,49.9
2017-07-11T06:22:24.491Z,49.6
2017-07-11T06:23:25.863Z,49.9
2017-07-11T06:24:27.241Z,49.9
2017-07-11T06:25:28.613Z,49.8
2017-07-11T06:26:29.992Z,49.9
2017-07-11T06:27:31.369Z,49.8
2017-07-11T06:28:32.742Z,49.5
2017-07-11T06:29:34.118Z,49.9
2017-07-11T06:30:35.491Z,49.6
2017-07-11T06:31:36.863Z,49.7
2017-07-11T06:32:38.238Z,50.6
2017-07-11T06:33:39.615Z,49.8
2017-07-11T06:34:40.989Z,49.3
2017-07-11T06:35:42.366Z,50.2
2017-07-11T06:36:43.741Z,49.5
2017-07-11T06:37:45.116Z,49.8
2017-07-11T06:38:46.490Z,51.3
2017-07-11T06:39:47.866Z,50.7
2017-07-11T06:40:49.241Z,50.5
2017-07-11T06:41:50.624Z,50.3
2017-07-11T06:42:51.993Z,49.8
2017-07-11T06:43:53.369Z,49.6
2017-07-11T06:44:54.744Z,49.1
2017-07-11T06:45:56.117Z,50.0
2017-07-11T06:46:57.492Z,49.5
2017-07-11T06:47:58.866Z,49.6
2017-07-11T06:49:00.240Z,49.3
2017-07-11T06:50:01.621Z,49.8
2017-07-11T06:51:02.993Z,49.3
2017-07-11T06:52:04.370Z,49.6
2017-07-11T06:53:05.741Z,50.2
2017-07-11T06:54:07.113Z,50.4
2017-07-11T06:55:08.490Z,50.5
2017-07-11T06:56:09.872Z,50.4
2017-07-11T06:57:11.245Z,50.5
2017-07-11T06:58:12.622Z,50.0
2017-07-11T06:59:13.996Z,49.9
2017-07-11T07:00:15.370Z,49.7
2017-07-11T07:01:16.745Z,49.4
2017-07-11T07:02:18.119Z,49.4
2017-07-11T07:03:19.496Z,51.1
2017-07-11T07:04:20.870Z,51.4
2017-07-11T07:05:22.244Z,51.8
2017-07-11T07:06:23.625Z,51.4
2017-07-11T07:07:24.997Z,50.6
2017-07-11T07:08:26.375Z,50.8
2017-07-11T07:09:27.751Z,50.4
2017-07-11T07:10:29.124Z,50.2
2017-07-11T07:11:30.503Z,50.7
2017-07-11T07:12:31.880Z,50.1
2017-07-11T07:13:33.253Z,50.0
2017-07-11T07:14:34.629Z,49.8
2017-07-11T07:15:36.007Z,49.9
2017-07-11T07:16:37.381Z,49.9
2017-07-11T07:17:38.761Z,49.9
2017-07-11T07:18:40.134Z,49.8
2017-07-11T07:19:41.507Z,49.4
2017-07-11T07:20:42.880Z,49.2
2017-07-11T07:21:44.252Z,49.7
2017-07-11T07:22:45.627Z,49.9
2017-07-11T07:23:47.001Z,50.2
2017-07-11T07:24:48.376Z,50.6
2017-07-11T07:25:49.758Z,51.3
2017-07-11T07:26:51.126Z,51.5
2017-07-11T07:27:52.503Z,51.7
2017-07-11T07:28:53.878Z,50.9
2017-07-11T07:29:55.255Z,51.1
2017-07-11T07:30:56.629Z,51.2
2017-07-11T07:31:58.005Z,50.2
2017-07-11T07:32:59.383Z,49.6
2017-07-11T07:34:00.756Z,49.7
2017-07-11T07:35:02.133Z,50.4
2017-07-11T07:36:03.510Z,50.3
2017-07-11T07:37:04.886Z,49.9
2017-07-11T07:38:06.267Z,50.2
2017-07-11T07:39:07.642Z,50.0
2017-07-11T07:40:09.018Z,49.8
2017-07-11T07:41:10.393Z,49.5
2017-07-11T07:42:11.770Z,49.1
2017-07-11T07:43:13.144Z,49.4
2017-07-11T07:44:14.523Z,49.3
2017-07-11T07:45:15.896Z,49.3
2017-07-11T07:46:17.276Z,50.0
2017-07-11T07:47:18.652Z,49.4
2017-07-11T07:48:20.023Z,49.8
2017-07-11T07:49:21.397Z,50.0
2017-07-11T07:50:22.772Z,49.3
2017-07-11T07:51:24.145Z,50.3
2017-07-11T07:52:25.523Z,50.6
2017-07-11T07:53:26.899Z,50.1
2017-07-11T07:54:28.273Z,49.9
2017-07-11T07:55:29.648Z,49.6
2017-07-11T07:56:31.022Z,49.3
2017-07-11T07:57:32.395Z,49.4
2017-07-11T07:58:33.773Z,49.8
2017-07-11T07:59:35.147Z,49.7
2017-07-11T08:00:36.524Z,51.1
2017-07-11T08:01:37.899Z,50.5
2017-07-11T08:02:39.273Z,50.4
2017-07-11T08:03:40.650Z,50.4
2017-07-11T08:04:42.035Z,50.5
2017-07-11T08:05:43.413Z,50.3
2017-07-11T08:06:44.788Z,50.4
2017-07-11T08:07:46.159Z,50.4
2017-07-11T08:08:47.540Z,50.2
2017-07-11T08:09:48.918Z,49.8
2017-07-11T08:10:50.282Z,49.8
2017-07-11T08:11:51.670Z,49.6
2017-07-11T08:12:53.038Z,49.7
2017-07-11T08:13:54.413Z,49.8
2017-07-11T08:14:55.787Z,49.6
2017-07-11T08:15:57.163Z,50.1
2017-07-11T08:16:58.541Z,50.5
2017-07-11T08:17:59.914Z,50.3
2017-07-11T08:19:01.292Z,50.2
2017-07-11T08:20:02.666Z,50.5
2017-07-11T08:21:04.042Z,49.8
2017-07-11T08:22:05.418Z,50.0
2017-07-11T08:23:06.792Z,50.0
2017-07-11T08:24:08.164Z,50.0
2017-07-11T08:25:09.540Z,50.3
2017-07-11T08:26:10.915Z,51.3
2017-07-11T08:27:12.287Z,50.3
2017-07-11T08:28:13.664Z,50.1
2017-07-11T08:29:15.039Z,49.9
2017-07-11T08:30:16.417Z,49.3
2017-07-11T08:31:17.794Z,49.8
2017-07-11T08:32:19.168Z,49.3
2017-07-11T08:33:20.543Z,50.3
2017-07-11T08:34:21.916Z,50.5
2017-07-11T08:35:23.291Z,50.8
2017-07-11T08:36:24.668Z,51.4
2017-07-11T08:37:26.043Z,50.4
2017-07-11T08:38:27.416Z,49.6
2017-07-11T08:39:28.793Z,49.8
2017-07-11T08:40:30.165Z,49.4
2017-07-11T08:41:31.540Z,49.3
2017-07-11T08:42:32.915Z,49.3
2017-07-11T08:43:34.287Z,50.1
2017-07-11T08:44:35.665Z,49.5
2017-07-11T08:45:37.039Z,49.7
2017-07-11T08:46:38.412Z,50.0
2017-07-11T08:47:39.789Z,50.1
2017-07-11T08:48:41.152Z,50.4
2017-07-11T08:49:42.536Z,50.4
2017-07-11T08:50:43.918Z,51.0
2017-07-11T08:51:45.288Z,51.2
2017-07-11T08:52:46.668Z,50.1
2017-07-11T08:53:48.038Z,50.0
2017-07-11T08:54:49.412Z,49.9
2017-07-11T08:55:50.787Z,49.7
2017-07-11T08:56:52.162Z,50.5
2017-07-11T08:57:53.541Z,50.1
2017-07-11T08:58:54.915Z,50.4
2017-07-11T08:59:56.291Z,50.1
2017-07-11T09:00:57.662Z,50.3
2017-07-11T09:01:59.036Z,50.6
2017-07-11T09:03:00.411Z,51.1
2017-07-11T09:04:01.783Z,50.4
2017-07-11T09:05:03.159Z,49.9
2017-07-11T09:06:04.533Z,49.7
2017-07-11T09:07:05.906Z,49.5
2017-07-11T09:08:07.285Z,50.0
2017-07-11T09:09:08.662Z,49.7
2017-07-11T09:10:10.033Z,49.6
2017-07-11T09:11:11.415Z,49.3
2017-07-11T09:12:12.791Z,49.1
2017-07-11T09:13:14.168Z,49.8
2017-07-11T09:14:15.543Z,49.7
2017-07-11T09:15:16.922Z,49.5
2017-07-11T09:16:18.295Z,49.9
2017-07-11T09:17:19.667Z,49.5
2017-07-11T09:18:21.044Z,49.2
2017-07-11T09:19:22.419Z,49.3
2017-07-11T09:20:23.800Z,49.7
2017-07-11T09:21:25.173Z,49.6
2017-07-11T09:22:26.546Z,49.7
2017-07-11T09:23:27.925Z,49.5
2017-07-11T09:24:29.298Z,49.5
2017-07-11T09:25:30.673Z,49.2
2017-07-11T09:26:32.049Z,49.3
2017-07-11T09:27:33.426Z,49.8
2017-07-11T09:28:34.798Z,50.7
2017-07-11T09:29:36.171Z,50.6
2017-07-11T09:30:37.547Z,51.1
2017-07-11T09:31:38.921Z,51.1
2017-07-11T09:32:40.294Z,50.8
2017-07-11T09:33:41.670Z,51.0
2017-07-11T09:34:43.047Z,50.5
2017-07-11T09:35:44.420Z,50.4
2017-07-11T09:36:45.795Z,50.2
2017-07-11T09:37:47.172Z,49.9
2017-07-11T09:38:48.546Z,50.6
2017-07-11T09:39:49.921Z,50.6
2017-07-11T09:40:51.296Z,49.9
2017-07-11T09:41:52.676Z,49.4
2017-07-11T09:42:54.048Z,49.2
2017-07-11T09:43:55.421Z,49.4
2017-07-11T09:44:56.797Z,49.0
2017-07-11T09:45:58.174Z,49.1
2017-07-11T09:46:59.550Z,49.5
2017-07-11T09:48:00.925Z,49.3
2017-07-11T09:49:02.301Z,49.5
2017-07-11T09:50:03.678Z,49.2
2017-07-11T09:51:05.051Z,49.2
2017-07-11T09:52:06.426Z,49.3
2017-07-11T09:53:07.801Z,49.1
2017-07-11T09:54:09.181Z,48.9
2017-07-11T09:55:10.555Z,48.9
2017-07-11T09:56:11.946Z,49.0
2017-07-11T09:57:13.322Z,49.0
2017-07-11T09:58:14.700Z,48.7
2017-07-11T09:59:16.075Z,48.5
2017-07-11T10:00:17.447Z,48.5
2017-07-11T10:01:18.824Z,48.2
2017-07-11T10:02:20.203Z,48.9
2017-07-11T10:03:21.579Z,49.0
2017-07-11T10:04:22.955Z,48.4
2017-07-11T10:05:24.332Z,48.0
2017-07-11T10:06:25.706Z,49.1
2017-07-11T10:07:27.083Z,48.5
2017-07-11T10:08:28.457Z,48.4
2017-07-11T10:09:29.832Z,48.1
2017-07-11T10:10:31.212Z,48.9
2017-07-11T10:11:32.586Z,48.8
2017-07-11T10:12:33.960Z,48.5
2017-07-11T10:13:35.352Z,48.1
2017-07-11T10:14:36.726Z,48.0
2017-07-11T10:15:38.103Z,48.6
2017-07-11T10:16:39.479Z,49.1
2017-07-11T10:17:40.854Z,49.1
2017-07-11T10:18:42.229Z,49.1
2017-07-11T10:19:43.604Z,49.0
2017-07-11T10:20:44.981Z,49.0
2017-07-11T10:21:46.361Z,48.5
2017-07-11T10:22:47.737Z,49.1
2017-07-11T10:23:49.112Z,48.3
2017-07-11T10:24:50.486Z,48.8
2017-07-11T10:25:51.862Z,48.0
2017-07-11T10:26:53.235Z,48.3
2017-07-11T10:27:54.609Z,48.0
2017-07-11T10:28:55.986Z,48.6
2017-07-11T10:29:57.363Z,49.2
2017-07-11T10:30:58.737Z,48.7
2017-07-11T10:32:00.124Z,48.5
2017-07-11T10:33:01.491Z,49.2
2017-07-11T10:34:02.864Z,49.0
2017-07-11T10:35:04.240Z,48.3
2017-07-11T10:36:05.621Z,48.1
2017-07-11T10:37:06.993Z,48.7
2017-07-11T10:38:08.372Z,48.3
2017-07-11T10:39:09.746Z,48.3
2017-07-11T10:40:11.125Z,48.3
2017-07-11T10:41:12.500Z,48.9
2017-07-11T10:42:13.874Z,48.0
2017-07-11T10:43:15.248Z,47.7
2017-07-11T10:44:16.622Z,48.6
2017-07-11T10:45:17.999Z,48.0
2017-07-11T10:46:19.377Z,48.1
2017-07-11T10:47:20.793Z,47.9
2017-07-11T10:48:22.182Z,47.6
2017-07-11T10:49:23.544Z,47.4
2017-07-11T10:50:24.919Z,48.0
2017-07-11T10:51:26.299Z,47.8
2017-07-11T10:52:27.672Z,48.3
2017-07-11T10:53:29.050Z,47.5
2017-07-11T10:54:30.426Z,47.4
2017-07-11T10:55:31.798Z,47.7
2017-07-11T10:56:33.174Z,47.5
2017-07-11T10:57:34.551Z,47.9
2017-07-11T10:58:35.925Z,47.6
2017-07-11T10:59:37.303Z,47.8
2017-07-11T11:00:38.679Z,47.4
2017-07-11T11:01:40.056Z,47.4
2017-07-11T11:02:41.433Z,47.4
2017-07-11T11:03:42.809Z,47.4
2017-07-11T11:04:44.182Z,47.3
2017-07-11T11:05:45.554Z,47.3
2017-07-11T11:06:46.931Z,46.9
2017-07-11T11:07:48.307Z,47.4
2017-07-11T11:08:49.687Z,46.9
2017-07-11T11:09:51.054Z,47.6
2017-07-11T11:10:52.437Z,47.7
2017-07-11T11:11:53.813Z,47.8
2017-07-11T11:12:55.191Z,47.6
2017-07-11T11:13:56.566Z,47.6
2017-07-11T11:14:57.945Z,47.5
2017-07-11T11:15:59.320Z,47.6
2017-07-11T11:17:00.691Z,47.8
2017-07-11T11:18:02.066Z,47.8
2017-07-11T11:19:03.443Z,47.5
2017-07-11T11:20:04.824Z,47.8
2017-07-11T11:21:06.196Z,47.1
2017-07-11T11:22:07.583Z,47.6
2017-07-11T11:23:08.960Z,47.3
2017-07-11T11:24:10.335Z,47.4
2017-07-11T11:25:11.712Z,47.0
2017-07-11T11:26:13.087Z,47.5
2017-07-11T11:27:14.465Z,47.6
2017-07-11T11:28:15.844Z,47.3
2017-07-11T11:29:17.219Z,47.0
2017-07-11T11:30:18.593Z,46.7
2017-07-11T11:31:19.964Z,47.2
2017-07-11T11:32:21.343Z,47.2
2017-07-11T11:33:22.722Z,47.1
2017-07-11T11:34:24.100Z,46.8
2017-07-11T11:35:25.476Z,46.4
2017-07-11T11:36:26.851Z,45.9
2017-07-11T11:37:28.229Z,46.5
2017-07-11T11:38:29.602Z,46.4
2017-07-11T11:39:30.975Z,46.3
2017-07-11T11:40:32.398Z,46.2
2017-07-11T11:41:33.773Z,46.2
2017-07-11T11:42:35.153Z,46.5
2017-07-11T11:43:36.529Z,46.2
2017-07-11T11:44:37.901Z,46.2
2017-07-11T11:45:39.278Z,46.2
2017-07-11T11:46:40.654Z,46.1
2017-07-11T11:47:42.030Z,45.9
2017-07-11T11:48:43.408Z,45.5
2017-07-11T11:49:44.784Z,45.9
2017-07-11T11:50:46.160Z,45.8
2017-07-11T11:51:47.538Z,45.4
2017-07-11T11:52:48.911Z,45.2
2017-07-11T11:53:50.286Z,45.4
2017-07-11T11:54:51.664Z,45.4
2017-07-11T11:55:53.040Z,45.9
2017-07-11T11:56:54.415Z,45.3
2017-07-11T11:57:56.631Z,45.4
2017-07-11T11:58:58.029Z,45.5
2017-07-11T11:59:59.404Z,45.2
2017-07-11T12:01:00.782Z,45.3
2017-07-11T12:02:02.159Z,45.6
2017-07-11T12:03:03.534Z,44.8
2017-07-11T12:04:04.912Z,44.5
2017-07-11T12:05:06.288Z,44.2
2017-07-11T12:06:07.667Z,44.4
2017-07-11T12:07:09.042Z,44.5
2017-07-11T12:08:10.416Z,44.3
2017-07-11T12:09:11.793Z,44.3
2017-07-11T12:10:13.170Z,44.5
2017-07-11T12:11:14.546Z,44.1
2017-07-11T12:12:15.922Z,44.2
2017-07-11T12:13:17.298Z,43.5
2017-07-11T12:14:18.675Z,43.8
2017-07-11T12:15:20.046Z,43.8
2017-07-11T12:16:21.423Z,43.7
2017-07-11T12:17:22.802Z,43.9
2017-07-11T12:18:24.182Z,43.7
2017-07-11T12:19:25.563Z,43.2
2017-07-11T12:20:26.937Z,43.0
2017-07-11T12:21:28.314Z,43.2
2017-07-11T12:22:29.692Z,43.3
2017-07-11T12:23:31.084Z,42.7
2017-07-11T12:24:32.447Z,43.4
2017-07-11T12:25:33.827Z,43.5
2017-07-11T12:26:35.203Z,43.5
2017-07-11T12:27:36.588Z,42.9
2017-07-11T12:28:37.965Z,42.9
2017-07-11T12:29:39.336Z,42.8
2017-07-11T12:30:40.762Z,42.6
2017-07-11T12:31:42.136Z,42.9
2017-07-11T12:32:43.515Z,42.3
2017-07-11T12:33:44.896Z,42.3
2017-07-11T12:34:46.272Z,42.3
2017-07-11T12:35:47.648Z,42.5
2017-07-11T12:36:49.024Z,42.2
2017-07-11T12:37:50.403Z,41.9
2017-07-11T12:38:51.778Z,42.7
2017-07-11T12:39:53.155Z,42.4
2017-07-11T12:40:54.532Z,42.6
2017-07-11T12:41:55.907Z,42.6
2017-07-11T12:42:57.282Z,42.3
2017-07-11T12:43:58.658Z,42.4
2017-07-11T12:45:00.033Z,42.7
2017-07-11T12:46:01.419Z,42.5
2017-07-11T12:47:02.802Z,42.8
2017-07-11T12:48:04.175Z,42.8
2017-07-11T12:49:05.552Z,42.6
2017-07-11T12:50:06.929Z,42.3
2017-07-11T12:51:08.298Z,42.7
2017-07-11T12:52:09.673Z,42.9
2017-07-11T12:53:11.050Z,43.0
2017-07-11T12:54:12.425Z,43.1
2017-07-11T12:55:13.804Z,43.0
2017-07-11T12:56:15.181Z,42.7
2017-07-11T12:57:16.557Z,42.2
2017-07-11T12:58:17.931Z,42.1
2017-07-11T12:59:19.302Z,42.7
2017-07-11T13:00:20.678Z,42.9
2017-07-11T13:01:22.055Z,42.7
2017-07-11T13:02:23.433Z,42.8
2017-07-11T13:03:24.805Z,42.4
2017-07-11T13:04:26.179Z,42.8
2017-07-11T13:05:27.553Z,42.4
2017-07-11T13:06:28.932Z,42.2
2017-07-11T13:07:30.306Z,42.8
2017-07-11T13:08:31.677Z,42.7
2017-07-11T13:09:33.061Z,42.7
2017-07-11T13:10:34.432Z,42.8
2017-07-11T13:11:35.808Z,42.5
2017-07-11T13:12:37.183Z,42.9
2017-07-11T13:13:38.563Z,42.7
2017-07-11T13:14:39.938Z,42.5
2017-07-11T13:15:41.318Z,42.5
2017-07-11T13:16:42.689Z,42.2
2017-07-11T13:17:44.070Z,42.8
2017-07-11T13:18:45.441Z,42.8
2017-07-11T13:19:46.819Z,42.8
2017-07-11T13:20:48.195Z,42.8
2017-07-11T13:21:49.569Z,42.7
2017-07-11T13:22:50.942Z,43.4
2017-07-11T13:23:52.319Z,44.3
2017-07-11T13:24:53.754Z,44.4
2017-07-11T13:25:55.071Z,44.8
2017-07-11T13:26:56.442Z,45.2
2017-07-11T13:27:57.817Z,45.9
2017-07-11T13:28:59.191Z,46.1
2017-07-11T13:30:00.570Z,46.0
2017-07-11T13:31:01.947Z,47.2
2017-07-11T13:32:03.319Z,47.3
2017-07-11T13:33:04.691Z,47.7
2017-07-11T13:34:06.068Z,47.9
2017-07-11T13:35:07.446Z,47.4
2017-07-11T13:36:08.820Z,47.7
2017-07-11T13:37:10.195Z,49.0